createdAt,value
2023-01-30T00:00:29.888Z,97.56
2023-01-30T00:05:26.412Z,98.03
2023-01-30T00:10:22.824Z,96.09
2023-01-30T00:15:18.856Z,98.48
2023-01-30T00:20:09.433Z,97.13
2023-01-30T00:25:04.914Z,95.89
2023-01-30T00:30:02.694Z,98.36
2023-01-30T00:35:03.140Z,99.38
2023-01-30T00:39:54.857Z,98.17
2023-01-30T00:45:01.159Z,98.84
2023-01-30T00:49:55.357Z,99.79
2023-01-30T00:54:51.731Z,99.51
2023-01-30T00:59:43.394Z,98.78
2023-01-30T01:04:52.646Z,97.54
2023-01-30T01:09:43.797Z,98.04
2023-01-30T01:14:35.508Z,97.21
2023-01-30T01:19:26.264Z,96.50
2023-01-30T01:24:22.707Z,96.40
2023-01-30T01:29:17.143Z,96.61
2023-01-30T01:34:12.750Z,97.70
2023-01-30T01:39:10.948Z,96.25
2023-01-30T01:44:10.062Z,98.64
2023-01-30T01:49:05.601Z,97.69
2023-01-30T01:54:01.336Z,97.17
2023-01-30T01:58:58.163Z,96.70
2023-01-30T02:04:02.164Z,97.55
2023-01-30T02:08:56.526Z,96.74
2023-01-30T02:13:49.374Z,99.68
2023-01-30T02:18:43.783Z,98.10
2023-01-30T02:23:57.403Z,96.82
2023-01-30T02:29:15.898Z,96.04
2023-01-30T02:34:15.930Z,97.06
2023-01-30T02:39:11.247Z,97.77
2023-01-30T02:44:10.675Z,99.90
2023-01-30T02:49:04.318Z,99.28
2023-01-30T02:54:02.767Z,100.00
2023-01-30T02:59:02.052Z,99.89
2023-01-30T03:04:09.995Z,98.63
2023-01-30T03:09:09.784Z,98.73
2023-01-30T03:14:06.447Z,100.00
2023-01-30T03:19:01.719Z,99.45
2023-01-30T03:23:52.554Z,97.79
2023-01-30T03:28:53.106Z,98.00
2023-01-30T03:33:47.053Z,98.38
2023-01-30T03:38:39.257Z,98.57
2023-01-30T03:43:31.167Z,99.27
2023-01-30T03:48:37.465Z,100.00
2023-01-30T03:53:33.992Z,97.46
2023-01-30T03:58:27.757Z,98.73
2023-01-30T04:03:21.787Z,98.25
2023-01-30T04:08:17.872Z,97.69
2023-01-30T04:13:15.865Z,96.56
2023-01-30T04:18:16.267Z,97.72
2023-01-30T04:23:31.954Z,100.00
2023-01-30T04:28:29.509Z,97.94
2023-01-30T04:33:23.946Z,97.40
2023-01-30T04:38:16.792Z,96.69
2023-01-30T04:43:18.124Z,95.74
2023-01-30T04:48:19.781Z,95.57
2023-01-30T04:53:18.358Z,94.61
2023-01-30T04:58:10.179Z,94.14
2023-01-30T05:03:02.985Z,93.07
2023-01-30T05:08:03.290Z,91.84
2023-01-30T05:12:59.260Z,88.13
2023-01-30T05:17:55.781Z,86.18
2023-01-30T05:22:49.511Z,83.91
2023-01-30T05:27:48.467Z,83.42
2023-01-30T05:32:44.669Z,82.08
2023-01-30T05:37:43.621Z,82.36
2023-01-30T05:42:47.538Z,82.62
2023-01-30T05:47:47.966Z,82.29
2023-01-30T05:52:40.652Z,82.21
2023-01-30T05:57:35.433Z,82.08
2023-01-30T06:02:29.548Z,81.39
2023-01-30T06:07:33.043Z,80.91
2023-01-30T06:12:24.006Z,81.48
2023-01-30T06:17:19.912Z,81.13
2023-01-30T06:22:15.058Z,81.27
2023-01-30T06:27:07.890Z,81.70
2023-01-30T06:31:59.977Z,81.30
2023-01-30T06:36:57.465Z,80.90
2023-01-30T06:41:51.776Z,80.35
2023-01-30T06:46:57.894Z,80.79
2023-01-30T06:52:11.817Z,79.66
2023-01-30T06:57:02.206Z,80.23
2023-01-30T07:02:02.669Z,78.77
2023-01-30T07:07:30.655Z,76.19
2023-01-30T07:12:25.975Z,75.82
2023-01-30T07:17:16.631Z,73.58
2023-01-30T07:22:19.261Z,73.65
2023-01-30T07:27:14.409Z,73.82
2023-01-30T07:32:12.211Z,73.28
2023-01-30T07:37:02.988Z,76.49
2023-01-30T07:42:06.118Z,75.05
2023-01-30T07:47:01.419Z,73.01
2023-01-30T07:56:59.870Z,73.94
2023-01-30T08:01:51.220Z,73.69
2023-01-30T08:06:47.094Z,74.09
2023-01-30T08:11:41.326Z,74.26
2023-01-30T08:16:39.715Z,73.65
2023-01-30T08:21:36.343Z,74.68
2023-01-30T08:26:42.933Z,74.76
2023-01-30T08:31:36.618Z,73.56
2023-01-30T08:36:27.523Z,72.72
2023-01-30T08:41:19.713Z,73.61
2023-01-30T08:46:17.662Z,72.01
2023-01-30T08:51:12.804Z,71.77
2023-01-30T08:56:04.951Z,73.43
2023-01-30T09:01:01.500Z,72.38
2023-01-30T09:05:57.172Z,74.70
2023-01-30T09:10:52.285Z,73.23
2023-01-30T09:15:46.756Z,72.79
2023-01-30T09:20:39.548Z,73.50
2023-01-30T09:25:34.878Z,72.75
2023-01-30T09:30:33.196Z,71.38
2023-01-30T09:35:26.150Z,73.42
2023-01-30T09:40:22.023Z,71.37
2023-01-30T09:45:21.818Z,73.13
2023-01-30T09:50:38.253Z,72.68
2023-01-30T09:55:44.291Z,70.80
2023-01-30T10:00:42.974Z,71.38
2023-01-30T10:05:42.553Z,71.84
2023-01-30T10:10:42.974Z,71.79
2023-01-30T10:15:42.146Z,69.54
2023-01-30T10:20:45.552Z,70.17
2023-01-30T10:25:41.030Z,71.71
2023-01-30T10:30:35.516Z,69.62
2023-01-30T10:35:48.333Z,69.95
2023-01-30T10:40:47.472Z,70.50
2023-01-30T10:45:49.481Z,71.30
2023-01-30T10:50:54.433Z,70.64
2023-01-30T10:55:56.285Z,69.99
2023-01-30T11:00:49.341Z,69.12
2023-01-30T11:05:44.537Z,68.58
2023-01-30T11:10:46.702Z,70.15
2023-01-30T11:15:49.253Z,68.94
2023-01-30T11:20:50.634Z,68.30
2023-01-30T11:26:02.193Z,69.12
2023-01-30T11:31:06.541Z,71.10
2023-01-30T11:36:04.439Z,70.40
2023-01-30T11:41:11.828Z,70.43
2023-01-30T11:46:11.326Z,70.32
2023-01-30T11:51:04.499Z,70.08
2023-01-30T11:56:03.311Z,70.40
2023-01-30T12:01:00.803Z,70.74
2023-01-30T12:05:55.874Z,69.15
2023-01-30T12:10:52.076Z,68.89
2023-01-30T12:15:46.204Z,69.07
2023-01-30T12:20:42.467Z,69.76
2023-01-30T12:25:40.313Z,68.68
2023-01-30T12:35:35.625Z,67.18
2023-01-30T12:40:47.068Z,67.20
2023-01-30T12:45:46.887Z,67.35
2023-01-30T12:50:46.354Z,67.78
2023-01-30T12:55:40.944Z,65.36
2023-01-30T13:00:43.367Z,65.91
2023-01-30T13:05:45.345Z,67.38
2023-01-30T13:10:44.478Z,69.47
2023-01-30T13:15:39.891Z,68.57
2023-01-30T13:20:41.696Z,67.39
2023-01-30T13:25:49.637Z,67.67
2023-01-30T13:30:43.760Z,67.98
2023-01-30T13:35:36.733Z,68.03
2023-01-30T13:40:44.932Z,67.31
2023-01-30T13:45:57.517Z,67.51
2023-01-30T13:51:08.945Z,68.33
2023-01-30T13:56:01.658Z,67.16
2023-01-30T14:00:58.839Z,67.28
2023-01-30T14:06:05.007Z,67.08
2023-01-30T14:10:57.464Z,68.75
2023-01-30T14:16:01.566Z,67.24
2023-01-30T14:21:11.639Z,66.91
2023-01-30T14:26:21.557Z,68.14
2023-01-30T14:31:39.452Z,67.35
2023-01-30T14:36:49.028Z,67.15
2023-01-30T14:41:41.997Z,67.50
2023-01-30T14:46:54.248Z,67.97
2023-01-30T14:51:48.123Z,68.38
2023-01-30T14:56:44.515Z,67.25
2023-01-30T15:01:52.490Z,66.44
2023-01-30T15:06:47.517Z,66.86
2023-01-30T15:11:40.327Z,66.41
2023-01-30T15:16:47.930Z,66.72
2023-01-30T15:21:45.679Z,67.56
2023-01-30T15:26:53.398Z,67.65
2023-01-30T15:31:56.407Z,68.06
2023-01-30T15:36:56.164Z,68.16
2023-01-30T15:41:52.587Z,69.17
2023-01-30T15:46:51.857Z,69.18
2023-01-30T15:51:50.610Z,68.77
2023-01-30T15:56:46.730Z,69.50
2023-01-30T16:01:46.301Z,70.63
2023-01-30T16:06:37.923Z,70.96
2023-01-30T16:11:40.483Z,70.84
2023-01-30T16:16:31.058Z,71.46
2023-01-30T16:21:30.712Z,71.59
2023-01-30T16:26:22.190Z,71.94
2023-01-30T16:31:17.581Z,72.16
2023-01-30T16:36:31.695Z,72.41
2023-01-30T16:41:40.260Z,72.22
2023-01-30T16:46:48.449Z,73.63
2023-01-30T16:51:50.260Z,72.19
2023-01-30T16:56:49.774Z,72.47
2023-01-30T17:01:42.292Z,72.15
2023-01-30T17:06:39.747Z,72.50
2023-01-30T17:11:39.816Z,71.67
2023-01-30T17:16:38.244Z,72.79
2023-01-30T17:21:33.280Z,72.94
2023-01-30T17:26:29.831Z,73.45
2023-01-30T17:31:33.547Z,72.93
2023-01-30T17:36:30.881Z,73.16
2023-01-30T17:41:25.714Z,73.15
2023-01-30T17:46:20.554Z,73.27
2023-01-30T17:51:20.563Z,73.61
2023-01-30T17:56:21.990Z,73.32
2023-01-30T18:01:15.683Z,72.76
2023-01-30T18:06:14.472Z,72.86
2023-01-30T18:11:05.371Z,72.96
2023-01-30T18:16:00.645Z,72.44
2023-01-30T18:21:01.896Z,72.07
2023-01-30T18:25:58.474Z,72.77
2023-01-30T18:30:49.429Z,72.60
2023-01-30T18:35:46.024Z,72.67
2023-01-30T18:40:39.904Z,72.82
2023-01-30T18:45:38.687Z,72.83
2023-01-30T18:50:32.270Z,72.93
2023-01-30T18:55:32.658Z,73.08
2023-01-30T19:00:26.342Z,73.34
2023-01-30T19:05:28.084Z,73.15
2023-01-30T19:10:25.133Z,73.37
2023-01-30T19:15:25.799Z,73.21
2023-01-30T19:20:23.789Z,72.90
2023-01-30T19:25:13.684Z,73.00
2023-01-30T19:30:03.705Z,72.97
2023-01-30T19:34:55.806Z,73.11
2023-01-30T19:39:45.937Z,73.52
2023-01-30T19:44:45.019Z,73.06
2023-01-30T19:49:40.438Z,73.49
2023-01-30T19:54:43.367Z,73.33
2023-01-30T19:59:47.559Z,73.87
2023-01-30T20:04:39.075Z,73.80
2023-01-30T20:09:35.813Z,73.90
2023-01-30T20:14:28.207Z,74.17
2023-01-30T20:19:27.314Z,74.33
2023-01-30T20:24:19.699Z,74.16
2023-01-30T20:34:25.723Z,74.83
2023-01-30T20:39:23.638Z,75.08
2023-01-30T20:44:21.223Z,75.60
2023-01-30T20:49:17.333Z,75.88
2023-01-30T20:54:17.918Z,75.76
2023-01-30T20:59:18.248Z,75.72
2023-01-30T21:04:17.245Z,76.48
2023-01-30T21:09:11.730Z,76.30
2023-01-30T21:14:06.191Z,76.08
2023-01-30T21:19:04.161Z,75.64
2023-01-30T21:24:02.716Z,75.15
2023-01-30T21:29:14.380Z,74.88
2023-01-30T21:34:06.314Z,75.03
2023-01-30T21:39:12.052Z,75.06
2023-01-30T21:44:23.263Z,76.06
2023-01-30T21:54:36.547Z,75.40
2023-01-30T21:59:28.112Z,75.82
2023-01-30T22:04:22.823Z,76.06
2023-01-30T22:09:18.823Z,76.12
2023-01-30T22:14:21.162Z,76.87
2023-01-30T22:19:18.368Z,77.98
2023-01-30T22:24:28.599Z,77.82
2023-01-30T22:29:22.933Z,77.91
2023-01-30T22:34:16.922Z,78.16
2023-01-30T22:39:16.081Z,78.49
2023-01-30T22:44:15.181Z,78.26
2023-01-30T22:49:07.380Z,78.44
2023-01-30T22:53:59.917Z,78.19
2023-01-30T22:58:53.597Z,78.60
2023-01-30T23:04:03.619Z,77.88
2023-01-30T23:09:01.111Z,79.62
2023-01-30T23:13:56.307Z,79.22
2023-01-30T23:19:10.702Z,79.40
2023-01-30T23:24:07.655Z,79.20
2023-01-30T23:29:04.829Z,79.01
2023-01-30T23:33:56.355Z,78.34
2023-01-30T23:38:51.119Z,79.19
2023-01-30T23:43:48.159Z,79.20
2023-01-30T23:48:37.948Z,81.00
2023-01-30T23:53:35.169Z,80.81
2023-01-30T23:58:25.498Z,80.86
